createdAt,value
2023-11-18T00:00:40.073Z,0.60
2023-11-18T00:02:44.106Z,0.60
2023-11-18T00:04:47.212Z,0.60
2023-11-18T00:06:50.043Z,0.60
2023-11-18T00:08:52.759Z,0.60
2023-11-18T00:10:55.922Z,0.60
2023-11-18T00:12:58.687Z,0.60
2023-11-18T00:15:00.473Z,0.60
2023-11-18T00:17:05.354Z,0.70
2023-11-18T00:19:10.114Z,0.70
2023-11-18T00:21:13.982Z,0.70
2023-11-18T00:23:20.025Z,0.70
2023-11-18T00:25:24.740Z,0.70
2023-11-18T00:27:27.554Z,0.60
2023-11-18T00:29:30.280Z,0.50
2023-11-18T00:31:33.114Z,0.50
2023-11-18T00:33:37.570Z,0.40
2023-11-18T00:35:40.576Z,0.30
2023-11-18T00:37:42.452Z,0.30
2023-11-18T00:39:45.293Z,0.20
2023-11-18T00:41:47.992Z,0.20
2023-11-18T00:43:50.831Z,0.20
2023-11-18T00:45:55.189Z,0.10
2023-11-18T00:47:57.928Z,0.10
2023-11-18T00:50:03.064Z,0.20
2023-11-18T00:52:06.967Z,0.30
2023-11-18T00:54:10.684Z,0.40
2023-11-18T00:56:18.907Z,0.50
2023-11-18T00:58:22.227Z,0.50
2023-11-18T01:00:27.340Z,0.60
2023-11-18T01:02:30.177Z,0.60
2023-11-18T01:04:34.156Z,0.70
2023-11-18T01:06:38.251Z,0.70
2023-11-18T01:08:41.175Z,0.80
2023-11-18T01:10:42.987Z,0.90
2023-11-18T01:12:46.336Z,0.90
2023-11-18T01:14:49.283Z,1.00
2023-11-18T01:16:52.073Z,1.00
2023-11-18T01:18:55.356Z,1.10
2023-11-18T01:21:00.260Z,1.10
2023-11-18T01:23:04.534Z,1.20
2023-11-18T01:25:09.547Z,1.20
2023-11-18T01:27:12.875Z,1.30
2023-11-18T01:29:14.700Z,1.30
2023-11-18T01:31:18.556Z,1.40
2023-11-18T01:33:21.361Z,1.40
2023-11-18T01:35:27.648Z,1.40
2023-11-18T01:37:30.372Z,1.50
2023-11-18T01:39:33.540Z,1.50
2023-11-18T01:41:36.716Z,1.40
2023-11-18T01:43:41.022Z,1.50
2023-11-18T01:45:43.874Z,1.50
2023-11-18T01:47:49.329Z,1.50
2023-11-18T01:49:52.273Z,1.60
2023-11-18T01:51:55.805Z,1.60
2023-11-18T01:54:01.719Z,1.60
2023-11-18T01:56:09.691Z,1.60
2023-11-18T01:58:14.107Z,1.60
2023-11-18T02:00:18.692Z,1.60
2023-11-18T02:02:23.039Z,1.60
2023-11-18T02:04:25.823Z,1.60
2023-11-18T02:06:28.944Z,1.60
2023-11-18T02:08:32.478Z,1.60
2023-11-18T02:10:35.719Z,1.70
2023-11-18T02:12:48.658Z,1.70
2023-11-18T02:14:54.790Z,1.70
2023-11-18T02:17:00.869Z,1.70
2023-11-18T02:19:06.367Z,1.70
2023-11-18T02:21:10.983Z,1.70
2023-11-18T02:23:13.868Z,1.70
2023-11-18T02:25:19.127Z,1.70
2023-11-18T02:27:25.426Z,1.70
2023-11-18T02:29:30.770Z,1.70
2023-11-18T02:31:38.556Z,1.60
2023-11-18T02:33:49.522Z,1.60
2023-11-18T02:35:57.506Z,1.50
2023-11-18T02:38:03.654Z,1.50
2023-11-18T02:40:09.328Z,1.50
2023-11-18T02:42:14.197Z,1.50
2023-11-18T02:44:21.556Z,1.50
2023-11-18T02:46:28.607Z,1.50
2023-11-18T02:48:33.638Z,1.50
2023-11-18T02:50:36.898Z,1.50
2023-11-18T02:52:39.827Z,1.40
2023-11-18T02:54:42.704Z,1.40
2023-11-18T02:56:45.488Z,1.40
2023-11-18T02:58:48.276Z,1.30
2023-11-18T03:00:52.436Z,1.40
2023-11-18T03:02:55.214Z,1.40
2023-11-18T03:04:57.993Z,1.40
2023-11-18T03:07:00.945Z,1.40
2023-11-18T03:09:03.884Z,1.40
2023-11-18T03:11:10.021Z,1.40
2023-11-18T03:13:14.000Z,1.40
2023-11-18T03:15:18.425Z,1.40
2023-11-18T03:17:22.619Z,1.30
2023-11-18T03:19:25.634Z,1.30
2023-11-18T03:21:28.398Z,1.40
2023-11-18T03:23:31.161Z,1.30
2023-11-18T03:25:33.934Z,1.30
2023-11-18T03:27:37.165Z,1.20
2023-11-18T03:29:40.792Z,1.20
2023-11-18T03:31:45.586Z,1.10
2023-11-18T03:33:49.716Z,1.10
2023-11-18T03:35:53.413Z,1.10
2023-11-18T03:37:56.351Z,1.10
2023-11-18T03:39:59.104Z,1.10
2023-11-18T03:42:01.834Z,1.20
2023-11-18T03:44:05.025Z,1.20
2023-11-18T03:46:09.057Z,1.20
2023-11-18T03:48:15.287Z,1.20
2023-11-18T03:50:19.352Z,1.30
2023-11-18T03:52:21.154Z,1.30
2023-11-18T03:54:23.871Z,1.30
2023-11-18T03:56:27.778Z,1.30
2023-11-18T03:58:30.639Z,1.20
2023-11-18T04:00:33.846Z,1.20
2023-11-18T04:02:36.893Z,1.10
2023-11-18T04:04:40.195Z,1.00
2023-11-18T04:06:44.308Z,1.00
2023-11-18T04:08:47.644Z,1.00
2023-11-18T04:10:50.471Z,1.10
2023-11-18T04:12:53.294Z,1.10
2023-11-18T04:14:56.035Z,1.10
2023-11-18T04:16:58.883Z,1.10
2023-11-18T04:19:00.900Z,1.10
2023-11-18T04:21:03.723Z,1.20
2023-11-18T04:23:07.845Z,1.20
2023-11-18T04:25:11.379Z,1.20
2023-11-18T04:27:13.172Z,1.20
2023-11-18T04:29:16.008Z,1.20
2023-11-18T04:31:18.772Z,1.20
2023-11-18T04:33:21.700Z,1.20
2023-11-18T04:35:25.503Z,1.20
2023-11-18T04:37:28.219Z,1.10
2023-11-18T04:39:33.667Z,1.10
2023-11-18T04:41:37.612Z,1.10
2023-11-18T04:43:45.876Z,1.10
2023-11-18T04:45:49.420Z,1.10
2023-11-18T04:47:52.859Z,1.20
2023-11-18T04:49:55.746Z,1.20
2023-11-18T04:51:59.963Z,1.20
2023-11-18T04:54:04.371Z,1.30
2023-11-18T04:56:10.954Z,1.30
2023-11-18T04:58:13.955Z,1.30
2023-11-18T05:00:18.795Z,1.40
2023-11-18T05:02:21.701Z,1.40
2023-11-18T05:04:24.511Z,1.40
2023-11-18T05:06:27.257Z,1.40
2023-11-18T05:08:30.162Z,1.40
2023-11-18T05:10:32.954Z,1.40
2023-11-18T05:12:37.278Z,1.40
2023-11-18T05:14:39.408Z,1.40
2023-11-18T05:16:43.355Z,1.40
2023-11-18T05:18:46.158Z,1.40
2023-11-18T05:20:48.657Z,1.40
2023-11-18T05:22:51.419Z,1.40
2023-11-18T05:24:54.217Z,1.50
2023-11-18T05:26:56.955Z,1.50
2023-11-18T05:29:01.232Z,1.50
2023-11-18T05:31:05.738Z,1.50
2023-11-18T05:33:10.047Z,1.50
2023-11-18T05:35:12.951Z,1.60
2023-11-18T05:37:19.094Z,1.60
2023-11-18T05:39:22.535Z,1.60
2023-11-18T05:41:28.700Z,1.60
2023-11-18T05:43:37.902Z,1.60
2023-11-18T05:46:02.564Z,1.50
2023-11-18T05:48:05.481Z,1.50
2023-11-18T05:50:10.756Z,1.50
2023-11-18T05:52:14.995Z,1.50
2023-11-18T05:54:17.796Z,1.50
2023-11-18T05:56:20.506Z,1.50
2023-11-18T05:58:23.342Z,1.50
2023-11-18T06:00:33.189Z,1.50
2023-11-18T06:02:40.612Z,1.50
2023-11-18T06:04:43.603Z,1.60
2023-11-18T06:06:48.093Z,1.50
2023-11-18T06:08:51.975Z,1.50
2023-11-18T06:10:57.683Z,1.50
2023-11-18T06:13:00.547Z,1.60
2023-11-18T06:15:03.271Z,1.60
2023-11-18T06:17:08.492Z,1.60
2023-11-18T06:19:12.634Z,1.60
2023-11-18T06:21:15.753Z,1.60
2023-11-18T06:23:19.629Z,1.60
2023-11-18T06:25:23.869Z,1.60
2023-11-18T06:27:26.614Z,1.60
2023-11-18T06:29:30.542Z,1.60
2023-11-18T06:31:33.932Z,1.60
2023-11-18T06:33:41.098Z,1.60
2023-11-18T06:35:46.024Z,1.60
2023-11-18T06:37:48.841Z,1.60
2023-11-18T06:39:51.769Z,1.70
2023-11-18T06:41:54.243Z,1.70
2023-11-18T06:44:09.915Z,1.70
2023-11-18T06:46:15.215Z,1.70
2023-11-18T06:48:21.098Z,1.70
2023-11-18T06:50:25.479Z,1.70
2023-11-18T06:52:29.220Z,1.70
2023-11-18T06:54:34.261Z,1.70
2023-11-18T06:56:38.377Z,1.70
2023-11-18T06:58:41.784Z,1.80
2023-11-18T07:00:44.528Z,1.80
2023-11-18T07:02:48.020Z,1.90
2023-11-18T07:04:51.535Z,1.80
2023-11-18T07:06:54.256Z,1.90
2023-11-18T07:09:01.724Z,1.90
2023-11-18T07:11:05.151Z,1.90
2023-11-18T07:13:09.612Z,1.90
2023-11-18T07:15:11.777Z,1.90
2023-11-18T07:17:14.702Z,1.80
2023-11-18T07:19:20.913Z,1.80
2023-11-18T07:21:25.051Z,1.80
2023-11-18T07:23:27.288Z,1.90
2023-11-18T07:25:31.700Z,1.90
2023-11-18T07:27:36.879Z,2.00
2023-11-18T07:29:39.626Z,2.00
2023-11-18T07:31:42.434Z,1.90
2023-11-18T07:33:50.020Z,1.90
2023-11-18T07:35:53.510Z,1.90
2023-11-18T07:37:56.498Z,1.90
2023-11-18T07:40:01.560Z,2.00
2023-11-18T07:42:06.560Z,2.00
2023-11-18T07:44:11.646Z,2.00
2023-11-18T07:46:14.676Z,2.00
2023-11-18T07:48:18.754Z,2.00
2023-11-18T07:50:22.201Z,2.00
2023-11-18T07:52:25.001Z,2.10
2023-11-18T07:54:28.360Z,2.20
2023-11-18T07:56:33.160Z,2.20
2023-11-18T07:58:38.265Z,2.20
2023-11-18T08:00:42.064Z,2.30
2023-11-18T08:02:45.488Z,2.30
2023-11-18T08:04:48.462Z,2.30
2023-11-18T08:06:52.970Z,2.40
2023-11-18T08:08:55.307Z,2.40
2023-11-18T08:10:59.210Z,2.50
2023-11-18T08:13:02.751Z,2.50
2023-11-18T08:15:10.178Z,2.50
2023-11-18T08:17:14.403Z,2.50
2023-11-18T08:19:17.191Z,2.50
2023-11-18T08:21:21.627Z,2.60
2023-11-18T08:23:24.431Z,2.70
2023-11-18T08:25:27.606Z,2.70
2023-11-18T08:27:29.367Z,2.70
2023-11-18T08:29:34.375Z,2.80
2023-11-18T08:31:40.665Z,2.80
2023-11-18T08:33:44.243Z,2.80
2023-11-18T08:35:47.241Z,2.80
2023-11-18T08:37:51.156Z,2.90
2023-11-18T08:39:53.960Z,2.90
2023-11-18T08:41:57.080Z,3.00
2023-11-18T08:44:10.854Z,3.00
2023-11-18T08:46:21.245Z,3.10
2023-11-18T08:48:25.397Z,3.10
2023-11-18T08:50:29.876Z,3.10
2023-11-18T08:52:32.724Z,3.10
2023-11-18T08:54:38.946Z,3.20
2023-11-18T08:56:43.229Z,3.10
2023-11-18T08:58:46.663Z,3.20
2023-11-18T09:00:53.842Z,3.20
2023-11-18T09:03:02.221Z,3.20
2023-11-18T09:05:13.791Z,3.20
2023-11-18T09:07:16.657Z,3.30
2023-11-18T09:09:27.055Z,3.30
2023-11-18T09:11:33.614Z,3.30
2023-11-18T09:13:36.077Z,3.30
2023-11-18T09:15:38.977Z,3.30
2023-11-18T09:17:45.685Z,3.40
2023-11-18T09:19:47.547Z,3.40
2023-11-18T09:21:52.724Z,3.40
2023-11-18T09:23:57.435Z,3.50
2023-11-18T09:26:00.245Z,3.50
2023-11-18T09:28:02.087Z,3.50
2023-11-18T09:30:14.574Z,3.50
2023-11-18T09:32:17.497Z,3.50
2023-11-18T09:34:27.936Z,3.60
2023-11-18T09:36:30.675Z,3.60
2023-11-18T09:38:36.660Z,3.70
2023-11-18T09:40:44.280Z,3.70
2023-11-18T09:42:47.044Z,3.70
2023-11-18T09:44:51.471Z,3.70
2023-11-18T09:47:05.335Z,3.70
2023-11-18T09:49:19.183Z,3.80
2023-11-18T09:51:24.069Z,3.80
2023-11-18T09:53:32.935Z,3.80
2023-11-18T09:55:44.808Z,3.90
2023-11-18T09:57:58.333Z,3.90
2023-11-18T10:00:20.852Z,4.00
2023-11-18T10:02:28.052Z,4.00
2023-11-18T10:04:32.443Z,4.00
2023-11-18T10:06:36.510Z,4.10
2023-11-18T10:08:39.567Z,4.10
2023-11-18T10:10:46.691Z,4.10
2023-11-18T10:12:53.101Z,4.10
2023-11-18T10:14:57.115Z,4.20
2023-11-18T10:16:59.065Z,4.20
2023-11-18T10:19:09.527Z,4.20
2023-11-18T10:21:12.712Z,4.30
2023-11-18T10:23:20.302Z,4.30
2023-11-18T10:25:26.578Z,4.40
2023-11-18T10:27:31.010Z,4.40
2023-11-18T10:29:32.993Z,4.40
2023-11-18T10:31:37.078Z,4.50
2023-11-18T10:33:43.078Z,4.50
2023-11-18T10:35:52.257Z,4.50
2023-11-18T10:37:55.166Z,4.50
2023-11-18T10:39:58.458Z,4.50
2023-11-18T10:42:01.364Z,4.60
2023-11-18T10:44:10.681Z,4.60
2023-11-18T10:46:15.029Z,4.60
2023-11-18T10:48:21.000Z,4.60
2023-11-18T10:50:24.264Z,4.70
2023-11-18T10:52:31.744Z,4.70
2023-11-18T10:54:35.092Z,4.70
2023-11-18T10:56:39.151Z,4.70
2023-11-18T10:58:42.131Z,4.80
2023-11-18T11:00:54.494Z,4.80
2023-11-18T11:03:00.442Z,4.80
2023-11-18T11:05:04.089Z,4.90
2023-11-18T11:07:07.421Z,4.90
2023-11-18T11:09:17.176Z,4.90
2023-11-18T11:11:24.365Z,4.90
2023-11-18T11:13:28.307Z,4.90
2023-11-18T11:15:41.922Z,5.00
2023-11-18T11:17:56.934Z,5.00
2023-11-18T11:20:18.845Z,5.00
2023-11-18T11:22:26.721Z,5.00
2023-11-18T11:24:43.354Z,5.00
2023-11-18T11:27:08.644Z,5.00
2023-11-18T11:29:27.508Z,5.00
2023-11-18T11:31:37.273Z,5.00
2023-11-18T11:33:46.947Z,5.00
2023-11-18T11:35:58.312Z,5.00
2023-11-18T11:38:11.044Z,5.00
2023-11-18T11:40:22.815Z,5.00
2023-11-18T11:42:26.042Z,5.10
2023-11-18T11:44:31.797Z,5.10
2023-11-18T11:46:36.566Z,5.10
2023-11-18T11:48:44.327Z,5.10
2023-11-18T11:51:07.124Z,5.20
2023-11-18T11:53:17.726Z,5.20
2023-11-18T11:55:30.903Z,5.20
2023-11-18T11:57:37.890Z,5.30
2023-11-18T11:59:57.881Z,5.30
2023-11-18T12:02:02.531Z,5.30
2023-11-18T12:04:11.713Z,5.30
2023-11-18T12:06:17.177Z,5.40
2023-11-18T12:08:20.182Z,5.40
2023-11-18T12:10:23.332Z,5.40
2023-11-18T12:12:28.109Z,5.40
2023-11-18T12:14:42.016Z,5.40
2023-11-18T12:17:01.773Z,5.40
2023-11-18T12:19:37.202Z,5.40
2023-11-18T12:21:57.663Z,5.40
2023-11-18T12:24:19.652Z,5.40
2023-11-18T12:26:41.022Z,5.40
2023-11-18T12:28:46.705Z,5.40
2023-11-18T12:30:58.483Z,5.40
2023-11-18T12:33:06.595Z,5.40
2023-11-18T12:35:18.669Z,5.50
2023-11-18T12:38:04.490Z,5.50
2023-11-18T12:40:37.239Z,5.50
2023-11-18T12:43:00.957Z,5.60
2023-11-18T12:45:29.938Z,5.60
2023-11-18T12:47:34.125Z,5.60
2023-11-18T12:49:42.089Z,5.60
2023-11-18T12:51:47.265Z,5.60
2023-11-18T12:53:52.404Z,5.60
2023-11-18T12:55:56.819Z,5.50
2023-11-18T12:58:01.385Z,5.60
2023-11-18T13:00:05.663Z,5.60
2023-11-18T13:02:14.122Z,5.60
2023-11-18T13:04:20.520Z,5.50
2023-11-18T13:06:29.417Z,5.60
2023-11-18T13:08:33.604Z,5.50
2023-11-18T13:10:37.655Z,5.50
2023-11-18T13:12:41.394Z,5.50
2023-11-18T13:14:46.827Z,5.50
2023-11-18T13:16:51.329Z,5.50
2023-11-18T13:18:56.365Z,5.60
2023-11-18T13:20:58.850Z,5.60
2023-11-18T13:23:02.142Z,5.60
2023-11-18T13:25:07.365Z,5.60
2023-11-18T13:27:11.840Z,5.60
2023-11-18T13:29:19.158Z,5.60
2023-11-18T13:31:21.958Z,5.70
2023-11-18T13:33:25.603Z,5.70
2023-11-18T13:35:28.890Z,5.70
2023-11-18T13:37:31.367Z,5.70
2023-11-18T13:39:34.430Z,5.70
2023-11-18T13:41:38.564Z,5.80
2023-11-18T13:43:44.497Z,5.80
2023-11-18T13:45:57.655Z,5.80
2023-11-18T13:48:02.942Z,5.80
2023-11-18T13:50:09.514Z,5.80
2023-11-18T13:52:13.832Z,5.90
2023-11-18T13:54:19.413Z,5.80
2023-11-18T13:56:23.344Z,5.90
2023-11-18T13:58:29.447Z,5.90
2023-11-18T14:00:33.078Z,5.90
2023-11-18T14:02:36.950Z,6.00
2023-11-18T14:04:44.220Z,6.00
2023-11-18T14:06:47.138Z,5.90
2023-11-18T14:08:51.609Z,6.00
2023-11-18T14:11:02.534Z,6.00
2023-11-18T14:13:10.100Z,6.00
2023-11-18T14:15:16.939Z,6.00
2023-11-18T14:17:19.975Z,6.00
2023-11-18T14:19:23.272Z,5.90
2023-11-18T14:21:26.544Z,5.90
2023-11-18T14:23:29.357Z,5.90
2023-11-18T14:25:31.237Z,5.90
2023-11-18T14:27:33.955Z,5.90
2023-11-18T14:29:37.284Z,5.90
2023-11-18T14:31:41.445Z,5.90
2023-11-18T14:33:44.363Z,5.90
2023-11-18T14:35:48.137Z,5.90
2023-11-18T14:37:51.342Z,5.90
2023-11-18T14:39:54.150Z,5.90
2023-11-18T14:41:57.008Z,6.00
2023-11-18T14:44:01.803Z,6.00
2023-11-18T14:46:05.781Z,5.90
2023-11-18T14:48:10.003Z,5.90
2023-11-18T14:50:18.946Z,5.90
2023-11-18T14:52:21.864Z,5.90
2023-11-18T14:54:24.888Z,5.90
2023-11-18T14:56:27.690Z,5.90
2023-11-18T14:58:31.200Z,5.90
2023-11-18T15:00:33.636Z,5.90
2023-11-18T15:02:36.753Z,6.00
2023-11-18T15:04:40.839Z,6.00
2023-11-18T15:06:42.586Z,6.00
2023-11-18T15:08:46.686Z,6.00
2023-11-18T15:10:49.699Z,6.00
2023-11-18T15:12:55.601Z,6.00
2023-11-18T15:15:00.623Z,6.00
2023-11-18T15:17:04.075Z,6.10
2023-11-18T15:19:07.872Z,6.00
2023-11-18T15:21:15.911Z,6.00
2023-11-18T15:23:19.985Z,6.10
2023-11-18T15:25:23.620Z,6.10
2023-11-18T15:27:26.068Z,6.10
2023-11-18T15:29:34.459Z,6.10
2023-11-18T15:31:37.268Z,6.10
2023-11-18T15:33:40.039Z,6.10
2023-11-18T15:35:43.023Z,6.20
2023-11-18T15:37:46.992Z,6.20
2023-11-18T15:39:49.735Z,6.20
2023-11-18T15:41:52.477Z,6.20
2023-11-18T15:43:55.292Z,6.30
2023-11-18T15:45:59.330Z,6.30
2023-11-18T15:48:06.072Z,6.30
2023-11-18T15:50:13.582Z,6.30
2023-11-18T15:52:18.534Z,6.30
2023-11-18T15:54:22.821Z,6.30
2023-11-18T15:56:25.815Z,6.30
2023-11-18T15:58:30.412Z,6.30
2023-11-18T16:00:33.510Z,6.30
2023-11-18T16:02:35.783Z,6.30
2023-11-18T16:04:38.559Z,6.30
2023-11-18T16:06:41.335Z,6.30
2023-11-18T16:08:47.457Z,6.30
2023-11-18T16:10:51.887Z,6.30
2023-11-18T16:12:56.144Z,6.30
2023-11-18T16:14:58.076Z,6.30
2023-11-18T16:17:01.007Z,6.30
2023-11-18T16:19:04.077Z,6.30
2023-11-18T16:21:07.381Z,6.30
2023-11-18T16:23:10.196Z,6.30
2023-11-18T16:25:13.323Z,6.30
2023-11-18T16:27:17.420Z,6.30
2023-11-18T16:29:20.220Z,6.30
2023-11-18T16:31:23.353Z,6.30
2023-11-18T16:33:26.395Z,6.30
2023-11-18T16:35:30.053Z,6.30
2023-11-18T16:37:33.131Z,6.30
2023-11-18T16:39:35.960Z,6.30
2023-11-18T16:41:45.502Z,6.30
2023-11-18T16:43:50.309Z,6.30
2023-11-18T16:45:53.155Z,6.30
2023-11-18T16:47:56.450Z,6.30
2023-11-18T16:50:03.681Z,6.30
2023-11-18T16:52:07.539Z,6.30
2023-11-18T16:54:10.287Z,6.30
2023-11-18T16:56:13.848Z,6.30
2023-11-18T16:58:16.653Z,6.30
2023-11-18T17:00:23.757Z,6.30
2023-11-18T17:02:28.296Z,6.30
2023-11-18T17:04:31.218Z,6.30
2023-11-18T17:06:34.044Z,6.30
2023-11-18T17:08:36.990Z,6.30
2023-11-18T17:10:40.172Z,6.30
2023-11-18T17:12:43.460Z,6.30
2023-11-18T17:14:46.270Z,6.30
2023-11-18T17:16:50.530Z,6.30
2023-11-18T17:18:53.305Z,6.30
2023-11-18T17:20:56.089Z,6.30
2023-11-18T17:22:59.274Z,6.30
2023-11-18T17:25:01.104Z,6.30
2023-11-18T17:27:04.645Z,6.30
2023-11-18T17:29:08.126Z,6.30
2023-11-18T17:31:11.851Z,6.30
2023-11-18T17:33:16.264Z,6.30
2023-11-18T17:35:21.175Z,6.30
2023-11-18T17:37:24.116Z,6.30
2023-11-18T17:39:27.932Z,6.30
2023-11-18T17:41:30.746Z,6.30
2023-11-18T17:43:33.504Z,6.30
2023-11-18T17:45:36.405Z,6.30
2023-11-18T17:47:39.171Z,6.30
2023-11-18T17:49:43.379Z,6.30
2023-11-18T17:51:46.132Z,6.30
2023-11-18T17:53:48.912Z,6.30
2023-11-18T17:55:51.692Z,6.20
2023-11-18T17:57:54.431Z,6.20
2023-11-18T17:59:58.282Z,6.20
2023-11-18T18:02:01.037Z,6.20
2023-11-18T18:04:07.738Z,6.20
2023-11-18T18:06:14.573Z,6.20
2023-11-18T18:08:17.297Z,6.20
2023-11-18T18:10:20.248Z,6.20
2023-11-18T18:12:23.043Z,6.20
2023-11-18T18:14:27.374Z,6.20
2023-11-18T18:16:30.156Z,6.20
2023-11-18T18:18:32.032Z,6.20
2023-11-18T18:20:34.800Z,6.20
2023-11-18T18:22:38.556Z,6.20
2023-11-18T18:24:41.400Z,6.20
2023-11-18T18:26:44.244Z,6.20
2023-11-18T18:28:48.569Z,6.20
2023-11-18T18:30:51.421Z,6.20
2023-11-18T18:32:54.220Z,6.20
2023-11-18T18:34:57.033Z,6.20
2023-11-18T18:36:59.817Z,6.20
2023-11-18T18:39:04.195Z,6.20
2023-11-18T18:41:07.437Z,6.20
2023-11-18T18:43:11.594Z,6.20
2023-11-18T18:45:13.472Z,6.30
2023-11-18T18:47:16.404Z,6.20
2023-11-18T18:49:19.323Z,6.30
2023-11-18T18:51:23.609Z,6.20
2023-11-18T18:53:27.324Z,6.20
2023-11-18T18:55:31.678Z,6.30
2023-11-18T18:57:34.645Z,6.30
2023-11-18T18:59:38.534Z,6.30
2023-11-18T19:01:44.914Z,6.30
2023-11-18T19:03:47.814Z,6.30
2023-11-18T19:05:51.523Z,6.30
2023-11-18T19:07:57.059Z,6.30
2023-11-18T19:09:59.353Z,6.30
2023-11-18T19:12:04.595Z,6.30
2023-11-18T19:14:08.396Z,6.30
2023-11-18T19:16:12.321Z,6.30
2023-11-18T19:18:16.542Z,6.30
2023-11-18T19:20:20.463Z,6.30
2023-11-18T19:22:25.290Z,6.30
2023-11-18T19:24:27.076Z,6.30
2023-11-18T19:26:29.873Z,6.30
2023-11-18T19:28:34.126Z,6.30
2023-11-18T19:30:37.026Z,6.30
2023-11-18T19:32:39.971Z,6.30
2023-11-18T19:34:43.033Z,6.30
2023-11-18T19:36:47.441Z,6.30
2023-11-18T19:38:50.209Z,6.30
2023-11-18T19:40:52.950Z,6.30
2023-11-18T19:42:55.116Z,6.30
2023-11-18T19:44:59.302Z,6.30
2023-11-18T19:47:02.121Z,6.30
2023-11-18T19:49:05.366Z,6.30
2023-11-18T19:51:11.619Z,6.30
2023-11-18T19:53:14.424Z,6.30
2023-11-18T19:55:18.642Z,6.30
2023-11-18T19:57:21.369Z,6.30
2023-11-18T19:59:24.206Z,6.40
2023-11-18T20:01:27.433Z,6.40
2023-11-18T20:03:30.249Z,6.30
2023-11-18T20:05:33.270Z,6.30
2023-11-18T20:07:36.304Z,6.30
2023-11-18T20:09:39.042Z,6.30
2023-11-18T20:11:49.756Z,6.30
2023-11-18T20:13:52.561Z,6.30
2023-11-18T20:15:56.503Z,6.30
2023-11-18T20:18:00.769Z,6.30
2023-11-18T20:20:06.389Z,6.40
2023-11-18T20:22:10.576Z,6.40
2023-11-18T20:24:13.365Z,6.40
2023-11-18T20:26:16.222Z,6.40
2023-11-18T20:28:19.036Z,6.40
2023-11-18T20:30:21.966Z,6.40
2023-11-18T20:32:25.132Z,6.40
2023-11-18T20:34:29.328Z,6.40
2023-11-18T20:36:31.581Z,6.40
2023-11-18T20:38:34.613Z,6.40
2023-11-18T20:40:36.406Z,6.40
2023-11-18T20:42:40.419Z,6.40
2023-11-18T20:44:43.420Z,6.40
2023-11-18T20:46:46.521Z,6.40
2023-11-18T20:48:50.173Z,6.40
2023-11-18T20:50:54.288Z,6.40
2023-11-18T20:52:57.223Z,6.40
2023-11-18T20:55:00.578Z,6.40
2023-11-18T20:57:02.857Z,6.40
2023-11-18T20:59:05.979Z,6.40
2023-11-18T21:01:12.254Z,6.40
2023-11-18T21:03:15.157Z,6.40
2023-11-18T21:05:18.776Z,6.40
2023-11-18T21:07:22.024Z,6.40
2023-11-18T21:09:24.897Z,6.50
2023-11-18T21:11:28.324Z,6.50
2023-11-18T21:13:31.729Z,6.50
2023-11-18T21:15:36.009Z,6.50
2023-11-18T21:17:38.950Z,6.50
2023-11-18T21:19:41.696Z,6.50
2023-11-18T21:21:44.548Z,6.50
2023-11-18T21:23:49.014Z,6.50
2023-11-18T21:25:51.895Z,6.50
2023-11-18T21:30:11.001Z,6.60
2023-11-18T21:32:13.073Z,6.60
2023-11-18T21:34:15.883Z,6.60
2023-11-18T21:36:22.326Z,6.60
2023-11-18T21:38:25.894Z,6.60
2023-11-18T21:40:30.261Z,6.60
2023-11-18T21:42:32.254Z,6.60
2023-11-18T21:44:35.869Z,6.70
2023-11-18T21:46:39.090Z,6.70
2023-11-18T21:48:42.232Z,6.70
2023-11-18T21:50:45.426Z,6.70
2023-11-18T21:52:48.263Z,6.70
2023-11-18T21:54:50.019Z,6.70
2023-11-18T21:56:54.119Z,6.70
2023-11-18T21:58:56.954Z,6.70
2023-11-18T22:00:59.791Z,6.70
2023-11-18T22:03:04.137Z,6.80
2023-11-18T22:05:08.765Z,6.80
2023-11-18T22:07:12.735Z,6.80
2023-11-18T22:09:17.160Z,6.80
2023-11-18T22:11:21.147Z,6.80
2023-11-18T22:13:25.762Z,6.80
2023-11-18T22:15:28.573Z,6.80
2023-11-18T22:17:31.441Z,6.80
2023-11-18T22:19:34.247Z,6.80
2023-11-18T22:21:37.243Z,6.80
2023-11-18T22:23:40.709Z,6.80
2023-11-18T22:25:44.978Z,6.80
2023-11-18T22:27:48.514Z,6.80
2023-11-18T22:29:53.476Z,6.90
2023-11-18T22:31:56.367Z,6.90
2023-11-18T22:34:00.054Z,6.90
2023-11-18T22:36:02.933Z,6.90
2023-11-18T22:38:05.715Z,6.90
2023-11-18T22:40:16.439Z,6.90
2023-11-18T22:42:18.891Z,6.90
2023-11-18T22:44:23.568Z,6.90
2023-11-18T22:46:27.266Z,6.90
2023-11-18T22:48:30.007Z,6.90
2023-11-18T22:50:36.287Z,6.90
2023-11-18T22:52:39.271Z,7.00
2023-11-18T22:54:42.225Z,7.00
2023-11-18T22:56:45.069Z,7.00
2023-11-18T22:58:48.732Z,7.00
2023-11-18T23:00:53.073Z,7.00
2023-11-18T23:02:57.402Z,7.00
2023-11-18T23:05:02.518Z,7.00
2023-11-18T23:07:06.094Z,7.00
2023-11-18T23:09:13.128Z,7.00
2023-11-18T23:11:16.465Z,7.00
2023-11-18T23:13:20.802Z,7.00
2023-11-18T23:15:25.143Z,7.10
2023-11-18T23:17:27.988Z,7.10
2023-11-18T23:19:36.283Z,7.10
2023-11-18T23:21:41.181Z,7.10
2023-11-18T23:23:44.264Z,7.10
2023-11-18T23:25:47.536Z,7.10
2023-11-18T23:30:03.834Z,7.10
2023-11-18T23:32:07.715Z,7.10
2023-11-18T23:34:10.662Z,7.10
2023-11-18T23:36:18.583Z,7.20
2023-11-18T23:38:22.286Z,7.20
2023-11-18T23:40:25.926Z,7.20
2023-11-18T23:42:28.701Z,7.20
2023-11-18T23:44:32.350Z,7.20
2023-11-18T23:46:35.400Z,7.20
2023-11-18T23:48:37.942Z,7.20
2023-11-18T23:50:41.138Z,7.20
2023-11-18T23:52:45.214Z,7.20
2023-11-18T23:54:49.228Z,7.20
2023-11-18T23:56:52.175Z,7.20
2023-11-18T23:58:54.934Z,7.20
